Apple River, Illinois
Current Conditions -  °F | °C
As of 12:55 AM on Sunday 26 Oct 2014 (Local Time) from KPVB Reporting Station
Clear Clear  
Wind Chill:   Ceiling: Unl
Heat Index:   Visibility: 10mi
Dew Point: -1°   Wind: 3mph
Humidity: 55%   Direction: 270°W
Pressure: 30.04"   Gusts: NA
Location:  42.51°N, 90.1°W
Report Text: KPVB 260555Z AUTO 27003KT 10SM CLR 08/M01 A3004 RMK AO1 T00801006 10133 20071 402020071
Loading
Personal Weather Stations






























Interactive Weather Map
Tropical Storm Tracking
New forecast layout! Learn more

10-Day Weather Forecast

Advertisements
Track Severe Weather on mobile